Time;durP1;ratioP1;P1;durP2;ratioP2;P2;SDS_P1;SDS_P2;PMS_P1;PMS_P2;Temp;Humidity;BMP_temperature;BMP_pressure;BME280_temperature;BME280_humidity;BME280_pressure;Samples;Min_cycle;Max_cycle;Signal;HPM_P1;HPM_P2
2022/01/13 00:01:11;;;;;;;11.00;4.60;;;;;;;-9.09;52.34;100237.21;25104;1313;3026547;-60
2022/01/13 00:03:40;;;;;;;12.50;5.30;;;;;;;-9.22;51.73;100240.35;25128;1313;3049650;-63
2022/01/13 00:06:09;;;;;;;11.50;4.50;;;;;;;-9.34;52.19;100241.17;25093;1313;3027083;-67
2022/01/13 00:08:38;;;;;;;9.60;4.70;;;;;;;-9.74;52.50;100244.61;25082;1313;3070878;-64
2022/01/13 00:11:07;;;;;;;11.70;5.40;;;;;;;-10.16;53.86;100246.39;25097;1315;3026859;-66
2022/01/13 00:16:44;;;;;;;7.30;2.40;;;;;;;-10.42;55.71;100245.48;24907;1321;3069701;-64
2022/01/13 00:21:51;;;;;;;14.70;4.40;;;;;;;-9.11;53.08;100237.98;25152;1313;3025928;-65
2022/01/13 00:24:20;;;;;;;9.60;3.40;;;;;;;-9.81;54.10;100244.73;25120;1313;3067587;-68
2022/01/13 00:26:49;;;;;;;6.40;3.50;;;;;;;-9.93;54.54;100237.54;25168;1313;3026301;-65
2022/01/13 00:29:21;;;;;;;9.40;3.80;;;;;;;-10.44;55.97;100237.47;25134;1313;3053750;-59
2022/01/13 00:31:50;;;;;;;12.60;4.60;;;;;;;-10.64;56.54;100231.15;25111;1313;3025247;-62
2022/01/13 00:34:19;;;;;;;3.70;1.70;;;;;;;-10.91;58.29;100243.02;25125;1313;3026573;-68
2022/01/13 00:36:49;;;;;;;6.20;3.30;;;;;;;-10.56;58.05;100242.28;25088;1315;3053147;-65
2022/01/13 00:39:18;;;;;;;6.20;2.60;;;;;;;-9.84;56.66;100234.95;25097;1313;3026347;-65
2022/01/13 00:41:46;;;;;;;12.60;5.30;;;;;;;-10.08;56.63;100234.30;25135;1313;3055099;-64
2022/01/13 00:44:19;;;;;;;13.20;5.40;;;;;;;-10.46;57.54;100241.13;25064;1315;3026089;-64
2022/01/13 00:46:55;;;;;;;12.10;4.90;;;;;;;-10.56;58.25;100236.88;25087;1313;3050276;-66
2022/01/13 00:49:24;;;;;;;10.80;4.80;;;;;;;-10.82;59.51;100240.81;25096;1313;3051506;-65
2022/01/13 00:51:53;;;;;;;4.90;2.20;;;;;;;-11.00;60.34;100240.65;25145;1315;3028780;-61
2022/01/13 00:54:23;;;;;;;6.80;3.30;;;;;;;-10.49;59.67;100239.66;25076;1313;3051821;-66
2022/01/13 00:56:52;;;;;;;8.40;3.90;;;;;;;-10.06;58.33;100238.27;25076;1313;3027225;-63
2022/01/13 00:59:21;;;;;;;11.50;4.50;;;;;;;-10.00;57.87;100238.14;25065;1316;3026427;-64
2022/01/13 01:01:50;;;;;;;12.40;4.70;;;;;;;-10.36;59.08;100242.65;25084;1313;3052023;-65
2022/01/13 01:04:19;;;;;;;10.00;3.40;;;;;;;-10.55;59.35;100237.93;25081;1313;3026164;-62
2022/01/13 01:06:49;;;;;;;11.40;5.00;;;;;;;-10.73;59.96;100238.77;25083;1313;3026817;-67
2022/01/13 01:09:47;;;;;;;8.70;2.90;;;;;;;-10.84;60.39;100236.34;25131;1313;3050585;-65
2022/01/13 01:12:08;;;;;;;7.60;3.50;;;;;;;-10.46;60.98;100239.42;25118;1316;3054218;-61
2022/01/13 01:14:46;;;;;;;14.30;5.30;;;;;;;-10.00;59.49;100245.59;25103;1313;3026275;-62
2022/01/13 01:17:16;;;;;;;10.60;4.50;;;;;;;-10.24;59.39;100247.98;25090;1313;3068671;-66
2022/01/13 01:19:49;;;;;;;7.60;3.50;;;;;;;-10.50;59.60;100243.35;25097;1313;3026903;-63
2022/01/13 01:27:30;;;;;;;9.30;2.50;;;;;;;-11.42;62.13;100253.02;25096;1313;3026514;-59
2022/01/13 01:30:22;;;;;;;9.70;4.40;;;;;;;-10.43;61.13;100241.90;25014;1316;3051314;-62
2022/01/13 01:32:52;;;;;;;15.00;5.70;;;;;;;-9.89;59.03;100239.20;25096;1313;3053259;-61
2022/01/13 01:35:24;;;;;;;10.00;4.50;;;;;;;-10.11;58.52;100243.37;25060;1313;3028948;-60
2022/01/13 01:37:54;;;;;;;18.80;5.70;;;;;;;-10.57;59.35;100238.50;25125;1315;3051432;-65
2022/01/13 01:40:23;;;;;;;24.50;9.80;;;;;;;-10.96;60.55;100245.86;25088;1313;3028727;-66
2022/01/13 01:42:52;;;;;;;19.00;6.90;;;;;;;-11.30;61.32;100252.66;25100;1313;3047653;-67
2022/01/13 01:45:22;;;;;;;13.20;4.90;;;;;;;-11.05;62.03;100255.33;25145;1313;3026946;-64
2022/01/13 01:47:52;;;;;;;20.00;6.80;;;;;;;-10.62;60.57;100252.74;25101;1313;3071594;-60
2022/01/13 01:50:23;;;;;;;14.20;6.20;;;;;;;-10.48;59.93;100254.27;25095;1313;3026169;-66
2022/01/13 01:52:53;;;;;;;21.50;7.20;;;;;;;-10.41;59.27;100254.19;25104;1313;3025426;-63
2022/01/13 01:55:22;;;;;;;25.80;6.50;;;;;;;-10.73;59.21;100251.15;25110;1313;3026753;-66
2022/01/13 01:57:55;;;;;;;33.00;9.10;;;;;;;-11.39;60.94;100247.58;25119;1313;3026742;-64
2022/01/13 02:00:26;;;;;;;19.50;6.00;;;;;;;-11.46;61.30;100253.86;25066;1313;3025681;-65
2022/01/13 02:02:55;;;;;;;18.90;5.90;;;;;;;-11.16;61.45;100253.36;25101;1313;3052853;-68
2022/01/13 02:05:24;;;;;;;25.10;7.20;;;;;;;-10.36;59.01;100246.05;25074;1313;3026862;-64
2022/01/13 02:07:53;;;;;;;23.70;5.60;;;;;;;-10.23;57.97;100246.82;25112;1313;3052364;-66
2022/01/13 02:10:22;;;;;;;20.70;7.10;;;;;;;-10.53;57.76;100247.96;25122;1313;3026771;-62
2022/01/13 02:13:00;;;;;;;21.20;6.60;;;;;;;-10.82;58.65;100249.45;25100;1313;3048752;-63
2022/01/13 02:16:06;;;;;;;12.70;4.90;;;;;;;-11.34;59.30;100262.66;25078;1315;3050773;-67
2022/01/13 02:18:36;;;;;;;6.90;2.20;;;;;;;-11.34;59.86;100270.60;25152;1315;3054406;-63
2022/01/13 02:21:05;;;;;;;7.10;3.30;;;;;;;-10.88;59.63;100269.34;25129;1313;3025455;-61
2022/01/13 02:23:36;;;;;;;12.10;4.30;;;;;;;-10.49;57.99;100268.29;25050;1315;3026211;-64
2022/01/13 02:26:12;;;;;;;13.90;4.90;;;;;;;-10.42;57.42;100268.17;25071;1315;3054518;-65
2022/01/13 02:28:41;;;;;;;8.70;3.90;;;;;;;-11.19;58.66;100265.80;25144;1313;3026700;-66
2022/01/13 02:31:11;;;;;;;14.70;5.80;;;;;;;-11.66;59.45;100268.44;25069;1313;3025534;-60
2022/01/13 02:33:40;;;;;;;6.80;1.90;;;;;;;-11.63;59.70;100268.77;25135;1313;3051477;-61
2022/01/13 02:36:10;;;;;;;5.80;1.70;;;;;;;-11.48;60.21;100270.50;25093;1316;3028499;-62
2022/01/13 02:38:40;;;;;;;7.40;4.00;;;;;;;-10.79;57.98;100260.90;25101;1315;3049553;-65
2022/01/13 02:41:08;;;;;;;6.60;3.60;;;;;;;-10.69;57.08;100262.11;25119;1313;3026929;-62
2022/01/13 02:43:39;;;;;;;8.40;3.50;;;;;;;-11.11;56.94;100257.98;25159;1313;3058498;-65
2022/01/13 02:46:43;;;;;;;8.10;3.50;;;;;;;-11.52;57.03;100267.85;25067;1316;3025904;-64
2022/01/13 02:49:13;;;;;;;5.20;2.10;;;;;;;-12.13;58.04;100273.44;25087;1313;3051222;-59
2022/01/13 02:51:43;;;;;;;6.90;2.80;;;;;;;-11.88;57.75;100280.91;25101;1312;3027731;-65
2022/01/13 02:54:13;;;;;;;11.10;3.50;;;;;;;-11.47;57.11;100276.51;25088;1313;3026112;-67
2022/01/13 02:56:43;;;;;;;10.20;3.60;;;;;;;-11.40;56.48;100281.34;25096;1313;3025126;-60
2022/01/13 02:59:12;;;;;;;7.50;3.00;;;;;;;-11.72;56.95;100282.23;25085;1313;3030425;-63
2022/01/13 03:01:41;;;;;;;22.60;3.80;;;;;;;-12.09;57.41;100281.88;25102;1313;3026065;-60
2022/01/13 03:04:11;;;;;;;9.10;2.80;;;;;;;-12.38;57.68;100285.34;25072;1313;3047157;-63
2022/01/13 03:06:41;;;;;;;6.60;2.00;;;;;;;-12.21;58.06;100294.20;25110;1313;3025348;-62
2022/01/13 03:09:13;;;;;;;9.60;3.10;;;;;;;-11.52;56.84;100286.47;25035;1313;3026112;-63
2022/01/13 03:11:44;;;;;;;8.30;3.30;;;;;;;-11.20;55.60;100290.79;25098;1313;3025492;-64
2022/01/13 03:14:13;;;;;;;11.70;3.50;;;;;;;-11.39;55.14;100292.73;25120;1316;3026689;-61
2022/01/13 03:16:43;;;;;;;8.40;2.80;;;;;;;-11.84;55.80;100303.70;25090;1313;3025261;-67
2022/01/13 03:19:13;;;;;;;6.90;3.30;;;;;;;-12.33;56.74;100288.59;25136;1313;3026686;-62
2022/01/13 03:21:42;;;;;;;3.70;2.30;;;;;;;-12.35;57.82;100289.35;25095;1313;3025209;-61
2022/01/13 03:24:11;;;;;;;9.40;3.90;;;;;;;-11.75;56.39;100292.60;25100;1313;3053252;-63
2022/01/13 03:26:42;;;;;;;7.90;3.70;;;;;;;-11.28;55.41;100287.24;25102;1313;3025889;-65
2022/01/13 03:31:41;;;;;;;4.70;2.60;;;;;;;-12.27;56.55;100302.87;25122;1313;3026988;-63
2022/01/13 03:34:11;;;;;;;6.10;2.90;;;;;;;-12.52;57.05;100304.48;25099;1313;3027172;-65
2022/01/13 03:36:41;;;;;;;4.60;2.30;;;;;;;-12.66;58.52;100302.81;25107;1313;3025270;-65
2022/01/13 03:39:12;;;;;;;7.60;3.80;;;;;;;-11.95;57.04;100304.60;25100;1313;3026631;-64
2022/01/13 03:41:41;;;;;;;7.10;2.90;;;;;;;-11.82;55.93;100302.09;25111;1313;3025895;-62
2022/01/13 03:44:18;;;;;;;7.50;3.30;;;;;;;-12.09;56.08;100309.07;25202;1313;3025534;-62
2022/01/13 03:46:47;;;;;;;6.50;2.70;;;;;;;-12.40;57.07;100305.36;25107;1313;3057788;-63
2022/01/13 03:49:16;;;;;;;3.80;1.60;;;;;;;-12.59;57.41;100311.73;25088;1313;3024975;-64
2022/01/13 03:51:50;;;;;;;4.60;2.40;;;;;;;-12.56;57.94;100304.98;25102;1313;3050776;-65
2022/01/13 03:54:22;;;;;;;4.80;2.50;;;;;;;-11.51;55.51;100301.04;25111;1316;3055101;-64
2022/01/13 03:57:09;;;;;;;4.10;2.30;;;;;;;-11.89;55.21;100299.44;25052;1316;3025302;-64
2022/01/13 04:00:07;;;;;;;8.70;3.10;;;;;;;-12.14;55.82;100300.94;25112;1313;3054351;-64
2022/01/13 04:02:42;;;;;;;8.50;2.80;;;;;;;-12.50;57.16;100301.00;25099;1315;3050064;-68
2022/01/13 04:05:11;;;;;;;3.40;1.10;;;;;;;-12.36;56.48;100294.05;25082;1313;3026871;-63
2022/01/13 04:07:40;;;;;;;6.80;2.60;;;;;;;-11.85;55.92;100299.77;25079;1316;3052989;-63
2022/01/13 04:10:44;;;;;;;3.30;1.90;;;;;;;-11.66;54.63;100294.33;25101;1313;3025388;-67
2022/01/13 04:13:33;;;;;;;9.60;3.30;;;;;;;-11.96;54.96;100289.85;25019;1313;3051109;-67
2022/01/13 04:16:04;;;;;;;10.40;3.70;;;;;;;-12.06;55.11;100295.02;25087;1315;3054421;-66
2022/01/13 04:18:33;;;;;;;3.80;2.00;;;;;;;-12.23;55.29;100296.29;25093;1313;3026472;-63
2022/01/13 04:21:02;;;;;;;6.20;2.30;;;;;;;-12.42;56.11;100295.27;25118;1315;3025393;-63
2022/01/13 04:23:31;;;;;;;10.10;3.50;;;;;;;-11.84;55.83;100294.42;25142;1315;3055216;-68
2022/01/13 04:26:05;;;;;;;8.70;3.10;;;;;;;-11.79;54.91;100301.03;25092;1313;3026300;-64
2022/01/13 04:28:34;;;;;;;6.90;4.00;;;;;;;-11.65;54.87;100308.55;25088;1313;3067487;-60
2022/01/13 04:31:03;;;;;;;11.70;4.50;;;;;;;-12.21;55.85;100311.44;25126;1316;3025336;-65
2022/01/13 04:33:36;;;;;;;3.70;1.90;;;;;;;-12.49;56.35;100311.20;25103;1313;3025194;-66
2022/01/13 04:36:06;;;;;;;5.70;2.30;;;;;;;-12.61;57.28;100309.29;25076;1313;3027310;-64
2022/01/13 04:38:35;;;;;;;3.90;2.50;;;;;;;-12.10;56.30;100304.80;25203;1312;3026398;-67
2022/01/13 04:41:05;;;;;;;9.40;3.30;;;;;;;-11.66;54.93;100298.73;25065;1318;3026152;-66
2022/01/13 04:43:33;;;;;;;14.00;4.40;;;;;;;-11.75;55.15;100303.95;25095;1315;3053769;-65
2022/01/13 04:46:02;;;;;;;8.40;3.40;;;;;;;-12.12;55.86;100306.89;25105;1316;3026489;-64
2022/01/13 04:48:31;;;;;;;6.20;2.40;;;;;;;-12.56;57.13;100311.38;25085;1313;3054715;-62
2022/01/13 04:51:00;;;;;;;12.80;2.40;;;;;;;-12.45;57.02;100305.77;25096;1316;3027065;-64
2022/01/13 04:53:29;;;;;;;6.80;2.60;;;;;;;-11.55;56.11;100304.58;25099;1316;3047138;-63
2022/01/13 04:55:59;;;;;;;7.40;3.10;;;;;;;-11.46;55.29;100300.39;25154;1313;3025221;-63
2022/01/13 04:58:28;;;;;;;11.10;3.90;;;;;;;-11.84;55.48;100302.52;25083;1316;3069506;-61
2022/01/13 05:00:57;;;;;;;11.20;3.90;;;;;;;-12.38;56.51;100304.94;25089;1313;3026878;-63
2022/01/13 05:03:25;;;;;;;8.90;2.80;;;;;;;-12.33;57.04;100301.63;25139;1313;3051510;-68
2022/01/13 05:05:54;;;;;;;5.50;2.00;;;;;;;-12.48;57.72;100306.53;25091;1313;3027263;-66
2022/01/13 05:08:23;;;;;;;7.90;3.10;;;;;;;-12.02;57.03;100312.75;25113;1319;3052827;-64
2022/01/13 05:10:52;;;;;;;8.20;3.30;;;;;;;-11.72;56.12;100316.38;25084;1313;3026066;-61
2022/01/13 05:13:21;;;;;;;16.80;3.40;;;;;;;-11.82;55.93;100330.70;25138;1313;3050224;-66
2022/01/13 05:15:50;;;;;;;10.10;4.90;;;;;;;-11.92;55.85;100325.50;25112;1313;3025499;-66
2022/01/13 05:21:17;;;;;;;23.60;2.30;;;;;;;-12.45;57.47;100323.69;25086;1313;3052287;-62
2022/01/13 05:23:46;;;;;;;11.50;4.10;;;;;;;-11.98;57.16;100320.38;25148;1313;3054801;-66
2022/01/13 05:26:15;;;;;;;15.30;4.90;;;;;;;-11.56;56.00;100332.25;25128;1313;3027445;-63
2022/01/13 05:28:44;;;;;;;14.70;4.50;;;;;;;-11.87;56.72;100320.63;25064;1313;3052042;-68
2022/01/13 05:31:13;;;;;;;10.10;4.00;;;;;;;-12.26;57.18;100322.48;25096;1316;3025465;-66
2022/01/13 05:33:42;;;;;;;21.40;5.60;;;;;;;-12.34;57.29;100324.03;25086;1313;3057196;-65
2022/01/13 05:36:13;;;;;;;9.00;2.80;;;;;;;-12.52;58.93;100322.02;25155;1316;3026024;-67
2022/01/13 05:38:42;;;;;;;9.50;3.30;;;;;;;-11.97;57.86;100329.35;25131;1313;3049642;-66
2022/01/13 05:41:11;;;;;;;9.30;3.20;;;;;;;-11.39;56.31;100327.05;25072;1313;3026269;-64
2022/01/13 05:43:40;;;;;;;10.80;4.40;;;;;;;-11.95;56.58;100326.89;25114;1313;3026385;-65
2022/01/13 05:46:09;;;;;;;8.00;4.10;;;;;;;-11.92;57.17;100316.24;25103;1313;3053419;-65
2022/01/13 05:48:38;;;;;;;9.00;3.90;;;;;;;-12.17;57.41;100319.39;25089;1315;3025313;-63
2022/01/13 05:51:07;;;;;;;4.80;2.10;;;;;;;-12.38;58.18;100321.95;25010;1318;3053026;-64
2022/01/13 05:53:36;;;;;;;10.70;4.10;;;;;;;-11.69;56.92;100322.44;25101;1313;3025997;-66
2022/01/13 05:56:05;;;;;;;11.70;4.90;;;;;;;-11.05;55.18;100320.66;25094;1316;3051318;-64
2022/01/13 05:58:34;;;;;;;8.30;4.30;;;;;;;-11.22;55.16;100319.12;25120;1313;3026666;-63
2022/01/13 06:01:03;;;;;;;12.50;4.80;;;;;;;-11.61;55.61;100325.29;25099;1316;3070089;-67
2022/01/13 06:03:33;;;;;;;17.90;5.90;;;;;;;-12.00;56.88;100318.91;25129;1318;3024687;-65
2022/01/13 06:06:02;;;;;;;11.20;3.50;;;;;;;-12.31;58.14;100326.84;25138;1316;3027160;-66
2022/01/13 06:08:32;;;;;;;8.90;3.20;;;;;;;-11.72;57.61;100323.48;25102;1316;3025072;-64
2022/01/13 06:11:01;;;;;;;10.20;4.00;;;;;;;-11.11;56.01;100327.36;25087;1319;3026428;-63
2022/01/13 06:13:30;;;;;;;17.80;5.50;;;;;;;-11.34;56.11;100327.29;25108;1313;3053201;-67
2022/01/13 06:15:58;;;;;;;13.00;4.30;;;;;;;-11.10;55.96;100322.46;25107;1313;3025645;-69
2022/01/13 06:18:25;;;;;;;13.00;4.30;;;;;;;-11.59;56.37;100325.71;23831;1313;5477727;-68
2022/01/13 06:20:54;;;;;;;15.70;6.20;;;;;;;-11.80;57.16;100326.20;25094;1316;3026743;-68
2022/01/13 06:23:23;;;;;;;9.60;4.30;;;;;;;-11.66;57.36;100323.92;25071;1317;3025606;-63
2022/01/13 06:25:52;;;;;;;18.10;5.10;;;;;;;-10.76;56.24;100323.33;25166;1316;3053703;-70
2022/01/13 06:28:20;;;;;;;11.40;4.00;;;;;;;-10.46;54.97;100325.80;25168;1318;3028434;-63
2022/01/13 06:30:49;;;;;;;14.60;4.60;;;;;;;-10.77;54.92;100321.25;25129;1313;3049265;-62
2022/01/13 06:33:19;;;;;;;10.90;4.10;;;;;;;-11.31;56.04;100330.45;25188;1316;3026918;-63
2022/01/13 06:35:48;;;;;;;8.90;3.80;;;;;;;-11.42;55.87;100328.77;25101;1313;3059005;-67
2022/01/13 06:38:17;;;;;;;12.90;2.70;;;;;;;-11.57;56.29;100316.69;25114;1316;3026684;-68
2022/01/13 06:40:49;;;;;;;12.10;2.60;;;;;;;-11.43;57.17;100315.73;25129;1316;3052744;-64
2022/01/13 06:43:18;;;;;;;19.50;5.10;;;;;;;-10.73;55.73;100318.01;25108;1319;3026261;-62
2022/01/13 06:45:47;;;;;;;10.60;4.40;;;;;;;-11.16;56.05;100320.05;25098;1313;3026210;-68
2022/01/13 06:48:16;;;;;;;12.80;4.60;;;;;;;-11.15;56.00;100330.07;25077;1315;3027146;-69
2022/01/13 06:50:45;;;;;;;10.60;4.40;;;;;;;-11.52;56.27;100332.09;25075;1315;3057257;-69
2022/01/13 06:53:14;;;;;;;10.10;3.60;;;;;;;-11.89;57.45;100326.31;25123;1316;3027130;-67
2022/01/13 06:55:42;;;;;;;6.10;2.70;;;;;;;-11.85;58.24;100328.67;25080;1315;3051476;-66
2022/01/13 06:58:11;;;;;;;9.20;4.50;;;;;;;-11.05;56.83;100333.52;25088;1313;3026939;-63
2022/01/13 07:00:40;;;;;;;12.70;5.30;;;;;;;-10.71;55.51;100325.36;25105;1316;3051668;-66
2022/01/13 07:03:10;;;;;;;16.40;5.30;;;;;;;-10.66;55.04;100321.31;25108;1313;3026432;-63
2022/01/13 07:05:39;;;;;;;10.90;4.80;;;;;;;-10.72;54.86;100326.49;25103;1313;3026060;-68
2022/01/13 07:08:11;;;;;;;17.20;5.40;;;;;;;-10.97;55.05;100339.09;25080;1314;3052021;-69
2022/01/13 07:10:40;;;;;;;11.90;4.30;;;;;;;-11.10;55.93;100339.38;25093;1313;3025986;-69
2022/01/13 07:13:09;;;;;;;8.70;3.40;;;;;;;-11.26;56.33;100330.46;25072;1313;3026241;-68
2022/01/13 07:15:38;;;;;;;15.30;4.40;;;;;;;-10.46;55.31;100317.13;25127;1315;3025170;-64
2022/01/13 07:18:07;;;;;;;14.50;5.00;;;;;;;-10.12;53.69;100318.39;25080;1313;3055431;-63
2022/01/13 07:20:37;;;;;;;14.10;5.40;;;;;;;-10.54;54.03;100334.80;25096;1313;3026252;-65
2022/01/13 07:23:06;;;;;;;17.10;6.30;;;;;;;-10.85;55.01;100322.61;25092;1313;3051191;-62
2022/01/13 07:25:35;;;;;;;13.40;5.70;;;;;;;-10.68;54.47;100309.90;25113;1313;3026243;-68
2022/01/13 07:28:06;;;;;;;6.80;3.50;;;;;;;-10.89;54.96;100309.97;25075;1316;3048093;-68
2022/01/13 07:30:36;;;;;;;8.20;3.20;;;;;;;-11.18;55.86;100322.32;25074;1315;3026719;-65
2022/01/13 07:33:05;;;;;;;15.00;3.90;;;;;;;-10.31;55.09;100309.55;25057;1316;3026550;-68
2022/01/13 07:35:34;;;;;;;12.10;3.80;;;;;;;-9.73;53.01;100304.02;25119;1313;3048644;-62
2022/01/13 07:39:51;;;;;;;18.90;6.60;;;;;;;-10.08;53.17;100300.58;31705;1309;3027128;-62
2022/01/13 07:42:20;;;;;;;30.30;10.00;;;;;;;-10.02;53.59;100282.84;25084;1312;3026744;-63
2022/01/13 07:44:49;;;;;;;17.00;6.10;;;;;;;-10.29;53.46;100294.75;25127;1312;3025985;-67
2022/01/13 07:47:19;;;;;;;9.80;3.90;;;;;;;-11.06;55.53;100316.90;25098;1315;3026695;-65
2022/01/13 07:49:48;;;;;;;8.00;3.50;;;;;;;-11.03;56.80;100318.21;25108;1313;3026784;-64
2022/01/13 07:52:17;;;;;;;13.80;5.20;;;;;;;-10.44;56.42;100305.70;25015;1310;3182895;-65
2022/01/13 07:54:47;;;;;;;19.50;6.10;;;;;;;-9.93;54.75;100289.57;25372;1310;3026095;-68
2022/01/13 07:57:16;;;;;;;14.20;5.60;;;;;;;-9.69;54.03;100288.73;25144;1312;3026744;-68
2022/01/13 07:59:45;;;;;;;20.30;6.10;;;;;;;-9.74;53.81;100289.89;25127;1309;3053391;-61
2022/01/13 08:02:14;;;;;;;11.10;5.60;;;;;;;-10.02;54.44;100283.33;25123;1310;3027327;-64
2022/01/13 08:04:44;;;;;;;13.80;6.30;;;;;;;-10.08;54.44;100280.09;25112;1311;3026620;-67
2022/01/13 08:07:13;;;;;;;15.00;2.70;;;;;;;-10.40;55.20;100290.95;25194;1310;3026575;-63
2022/01/13 08:09:42;;;;;;;7.00;2.80;;;;;;;-10.30;56.00;100282.68;25153;1312;3057418;-67
2022/01/13 08:12:10;;;;;;;14.10;5.30;;;;;;;-9.46;54.98;100280.30;25179;1312;3030442;-69
2022/01/13 08:14:40;;;;;;;17.90;4.90;;;;;;;-9.03;53.22;100270.68;25190;1311;3050235;-64
2022/01/13 08:17:18;;;;;;;18.10;6.10;;;;;;;-9.18;53.38;100262.73;25209;1310;3028627;-62
2022/01/13 08:19:48;;;;;;;14.50;6.40;;;;;;;-9.53;53.99;100252.79;25210;1310;3050467;-70
2022/01/13 08:22:17;;;;;;;19.70;6.80;;;;;;;-9.73;55.32;100246.36;25161;1309;3026759;-65
2022/01/13 08:24:46;;;;;;;10.30;4.50;;;;;;;-9.74;55.42;100250.71;25164;1309;3028578;-68
2022/01/13 08:27:15;;;;;;;12.00;6.10;;;;;;;-9.87;55.25;100245.55;25154;1310;3048809;-68
2022/01/13 08:29:44;;;;;;;7.20;3.40;;;;;;;-10.12;56.27;100243.63;25200;1309;3027269;-64
2022/01/13 08:32:13;;;;;;;10.60;4.60;;;;;;;-9.66;55.84;100245.40;25189;1310;3058537;-62
2022/01/13 08:34:43;;;;;;;13.80;4.60;;;;;;;-9.13;54.98;100233.85;25176;1310;3026184;-71
2022/01/13 08:37:12;;;;;;;11.60;4.90;;;;;;;-8.97;54.05;100248.10;25162;1312;3026537;-69
2022/01/13 08:39:44;;;;;;;11.70;4.70;;;;;;;-9.39;54.73;100247.45;25140;1309;3057975;-66
2022/01/13 08:42:13;;;;;;;16.60;5.80;;;;;;;-9.60;55.03;100249.15;25176;1312;3028230;-64
2022/01/13 08:44:43;;;;;;;15.00;5.00;;;;;;;-9.64;55.33;100236.46;25177;1310;3026202;-69
2022/01/13 08:47:11;;;;;;;12.80;4.90;;;;;;;-9.69;55.57;100232.92;25140;1310;3026933;-66
2022/01/13 08:49:41;;;;;;;12.70;5.20;;;;;;;-9.86;56.13;100238.27;25166;1310;3048786;-66
2022/01/13 08:52:10;;;;;;;12.30;4.30;;;;;;;-9.95;57.02;100235.75;25152;1309;3026791;-69
2022/01/13 08:54:45;;;;;;;28.40;8.70;;;;;;;-9.21;55.97;100236.33;25121;1311;3026698;-66
2022/01/13 08:57:16;;;;;;;16.50;6.10;;;;;;;-8.10;53.94;100230.02;25129;1309;3070797;-71
2022/01/13 08:59:45;;;;;;;25.90;7.20;;;;;;;-8.26;53.05;100231.27;25153;1311;3026599;-68
2022/01/13 09:02:14;;;;;;;24.00;5.40;;;;;;;-8.49;52.61;100227.77;25203;1309;3054460;-65
2022/01/13 09:04:43;;;;;;;27.60;8.10;;;;;;;-8.60;52.50;100219.65;25135;1312;3027401;-65
2022/01/13 09:07:12;;;;;;;48.60;12.30;;;;;;;-9.07;54.13;100218.61;25126;1311;3054508;-68
2022/01/13 09:09:41;;;;;;;26.70;8.20;;;;;;;-8.91;54.31;100219.75;25167;1310;3026467;-66
2022/01/13 09:12:21;;;;;;;34.00;10.40;;;;;;;-9.08;54.77;100216.04;25112;1309;3049182;-65
2022/01/13 09:14:51;;;;;;;26.40;9.80;;;;;;;-9.18;55.18;100215.20;25155;1312;3028613;-66
2022/01/13 09:17:23;;;;;;;22.20;9.10;;;;;;;-9.05;55.10;100211.54;25176;1309;3057092;-70
2022/01/13 09:19:52;;;;;;;42.60;11.40;;;;;;;-8.81;55.96;100196.59;25170;1309;3026111;-64
2022/01/13 09:22:21;;;;;;;26.60;9.30;;;;;;;-8.16;54.78;100203.65;25156;1311;3026043;-64
2022/01/13 09:24:50;;;;;;;16.20;7.90;;;;;;;-8.01;53.45;100194.85;25137;1309;3054795;-67
2022/01/13 09:27:19;;;;;;;28.80;7.80;;;;;;;-8.04;53.02;100199.38;25137;1309;3026495;-63
2022/01/13 09:29:48;;;;;;;18.60;7.50;;;;;;;-8.31;53.10;100182.70;25139;1311;3051777;-65
2022/01/13 09:32:17;;;;;;;37.90;13.70;;;;;;;-8.53;54.12;100175.16;25168;1309;3026791;-67
2022/01/13 09:34:45;;;;;;;27.60;9.60;;;;;;;-8.77;55.58;100177.21;25125;1310;3049986;-63
2022/01/13 09:37:16;;;;;;;37.30;13.20;;;;;;;-9.20;56.87;100173.35;25191;1309;3027076;-67
2022/01/13 09:39:45;;;;;;;42.50;12.60;;;;;;;-9.25;57.11;100174.08;25149;1309;3051635;-66
2022/01/13 09:42:14;;;;;;;35.60;12.70;;;;;;;-9.43;56.87;100179.48;25173;1309;3026988;-65
2022/01/13 09:44:43;;;;;;;15.20;5.50;;;;;;;-9.43;56.59;100179.95;25136;1312;3072313;-62
2022/01/13 09:47:13;;;;;;;27.70;9.50;;;;;;;-8.80;56.60;100170.50;25144;1312;3025944;-64
2022/01/13 09:49:44;;;;;;;23.30;9.00;;;;;;;-8.14;54.54;100164.26;25147;1312;3050031;-67
2022/01/13 09:52:13;;;;;;;23.70;8.50;;;;;;;-8.22;53.95;100164.92;25137;1309;3031170;-65
2022/01/13 09:54:42;;;;;;;39.20;12.30;;;;;;;-8.48;54.45;100155.06;25156;1312;3027127;-65
2022/01/13 09:57:11;;;;;;;23.80;7.40;;;;;;;-8.43;54.56;100163.20;25108;1311;3052238;-64
2022/01/13 09:59:40;;;;;;;27.20;9.30;;;;;;;-8.65;54.58;100170.07;25127;1310;3026808;-64
2022/01/13 10:02:10;;;;;;;30.00;9.10;;;;;;;-8.81;54.98;100153.30;25146;1310;3053814;-68
2022/01/13 10:04:57;;;;;;;34.90;10.40;;;;;;;-8.90;55.36;100154.58;25151;1311;3026315;-64
2022/01/13 10:07:46;;;;;;;25.20;9.70;;;;;;;-8.91;56.15;100150.64;25104;1311;3070391;-65
2022/01/13 10:10:17;;;;;;;26.50;9.20;;;;;;;-8.63;55.91;100148.55;25204;1310;3049436;-62
2022/01/13 10:12:48;;;;;;;32.90;11.30;;;;;;;-8.54;55.61;100148.98;25157;1309;3025844;-70
2022/01/13 10:18:07;;;;;;;23.20;7.80;;;;;;;-8.78;55.67;100149.66;25104;1310;3054658;-64
2022/01/13 10:20:36;;;;;;;23.30;8.20;;;;;;;-8.10;55.39;100134.78;25132;1310;3026646;-61
2022/01/13 10:23:09;;;;;;;27.00;8.90;;;;;;;-7.47;53.89;100135.61;25108;1312;3053364;-63
2022/01/13 10:53:31;;;;;;;43.00;13.10;;;;;;;-7.02;52.44;100093.52;21310;1300;3057554;-64
2022/01/13 10:57:20;;;;;;;26.30;10.40;;;;;;;-6.92;52.78;100088.80;20000;1300;3051225;-66
2022/01/13 11:00:30;;;;;;;19.70;6.70;;;;;;;-7.12;53.59;100075.62;19063;1298;3055031;-68
2022/01/13 11:03:32;;;;;;;46.60;11.70;;;;;;;-6.97;53.92;100064.85;18844;1302;3052123;-66
2022/01/13 11:13:32;;;;;;;26.40;9.40;;;;;;;-7.10;54.35;100070.38;19084;1303;3054512;-66
2022/01/13 11:16:13;;;;;;;24.50;10.00;;;;;;;-7.14;54.65;100065.00;18662;1300;3055761;-67
2022/01/13 11:22:38;;;;;;;30.10;10.70;;;;;;;-7.76;56.19;100067.26;18523;1304;3051978;-63
2022/01/13 11:28:50;;;;;;;30.70;11.70;;;;;;;-7.37;55.60;100066.58;19325;1298;3053588;-67
2022/01/13 11:31:34;;;;;;;38.50;15.50;;;;;;;-7.52;55.71;100066.77;19191;1297;3070442;-65
2022/01/13 11:42:03;;;;;;;38.10;13.10;;;;;;;-7.08;55.26;100059.69;19180;1302;3053876;-64
2022/01/13 11:45:57;;;;;;;29.90;10.70;;;;;;;-7.14;55.49;100056.66;18754;1302;3057868;-64
2022/01/13 11:48:34;;;;;;;26.20;10.00;;;;;;;-7.24;55.46;100066.87;18587;1303;3052012;-68
2022/01/13 11:51:24;;;;;;;34.50;13.20;;;;;;;-7.33;55.57;100061.73;19063;1299;3054437;-65
2022/01/13 11:54:28;;;;;;;39.00;12.90;;;;;;;-7.15;55.42;100057.67;19085;1300;3051101;-66
2022/01/13 12:00:50;;;;;;;33.70;12.40;;;;;;;-7.29;55.26;100063.69;18394;1303;3051664;-66
2022/01/13 12:07:02;;;;;;;35.70;12.10;;;;;;;-7.11;55.03;100051.63;19632;1299;3054899;-66
2022/01/13 12:10:47;;;;;;;38.90;14.60;;;;;;;-6.87;54.07;100053.45;19053;1301;3058233;-65
2022/01/13 13:06:25;;;;;;;39.10;16.00;;;;;;;-6.17;50.31;99980.17;19462;1298;3054364;-66
2022/01/13 13:10:08;;;;;;;25.20;9.40;;;;;;;-6.06;50.63;99982.55;19679;1300;3054766;-68
2022/01/13 13:12:54;;;;;;;45.10;18.10;;;;;;;-6.12;51.24;99973.95;19779;1296;3058001;-67
2022/01/13 13:38:40;;;;;;;31.20;10.80;;;;;;;-5.67;49.29;99941.61;19156;1302;3054513;-63
2022/01/13 13:42:49;;;;;;;26.00;8.40;;;;;;;-5.84;50.34;99944.11;19104;1302;3058198;-64
2022/01/13 13:46:25;;;;;;;16.80;6.80;;;;;;;-5.91;50.47;99921.34;19363;1295;3051590;-66
2022/01/13 13:49:25;;;;;;;25.00;9.60;;;;;;;-6.00;50.98;99906.89;18518;1301;3054287;-66
2022/01/13 13:52:23;;;;;;;37.50;11.50;;;;;;;-6.09;51.66;99903.04;19392;1295;3052175;-63
2022/01/13 13:55:01;;;;;;;35.60;11.50;;;;;;;-6.08;51.89;99913.27;18673;1298;3070346;-65
2022/01/13 13:58:38;;;;;;;32.50;10.80;;;;;;;-6.42;52.64;99905.11;18601;1303;3050437;-65
2022/01/13 14:02:29;;;;;;;39.20;11.70;;;;;;;-6.29;52.73;99900.56;19148;1295;3052152;-66
2022/01/13 14:05:46;;;;;;;30.20;10.10;;;;;;;-6.43;53.06;99912.95;18630;1301;3054119;-69